createdAt,value
2022-12-15T00:02:04.611Z,77.41
2022-12-15T00:04:54.122Z,77.67
2022-12-15T00:07:43.607Z,77.46
2022-12-15T00:10:33.688Z,77.64
2022-12-15T00:13:31.122Z,77.62
2022-12-15T00:16:21.765Z,77.61
2022-12-15T00:19:11.562Z,77.60
2022-12-15T00:22:00.886Z,77.53
2022-12-15T00:24:50.997Z,77.63
2022-12-15T00:27:42.659Z,77.74
2022-12-15T00:30:36.939Z,77.83
2022-12-15T00:33:31.430Z,77.88
2022-12-15T00:36:22.958Z,77.80
2022-12-15T00:39:00.494Z,77.66
2022-12-15T00:41:36.041Z,77.72
2022-12-15T00:44:08.516Z,77.80
2022-12-15T00:46:56.009Z,77.83
2022-12-15T00:49:49.672Z,77.69
2022-12-15T00:52:39.648Z,77.73
2022-12-15T00:55:29.820Z,77.66
2022-12-15T00:58:19.963Z,77.60
2022-12-15T01:01:12.266Z,77.83
2022-12-15T01:04:03.061Z,77.70
2022-12-15T01:06:53.668Z,77.81
2022-12-15T01:09:44.047Z,77.76
2022-12-15T01:12:33.744Z,77.61
2022-12-15T01:15:24.243Z,77.70
2022-12-15T01:18:14.162Z,77.74
2022-12-15T01:20:46.582Z,77.91
2022-12-15T01:23:19.363Z,77.89
2022-12-15T01:25:53.687Z,77.88
2022-12-15T01:28:27.858Z,77.90
2022-12-15T01:31:02.881Z,78.02
2022-12-15T01:33:35.133Z,78.34
2022-12-15T01:36:07.695Z,78.31
2022-12-15T01:38:40.158Z,78.29
2022-12-15T01:41:13.616Z,78.16
2022-12-15T01:43:46.390Z,78.09
2022-12-15T01:46:23.886Z,77.93
2022-12-15T01:49:11.924Z,77.85
2022-12-15T01:51:48.974Z,77.82
2022-12-15T01:54:25.026Z,78.01
2022-12-15T01:57:03.203Z,77.93
2022-12-15T01:59:40.221Z,77.91
2022-12-15T02:02:14.269Z,77.72
2022-12-15T02:04:47.534Z,77.56
2022-12-15T02:07:20.759Z,77.92
2022-12-15T02:09:57.903Z,77.86
2022-12-15T02:12:42.052Z,77.90
2022-12-15T02:15:22.007Z,77.75
2022-12-15T02:18:08.463Z,77.80
2022-12-15T02:20:56.657Z,77.98
2022-12-15T02:23:54.490Z,78.01
2022-12-15T02:27:03.717Z,78.02
2022-12-15T02:30:07.684Z,77.78
2022-12-15T02:32:44.884Z,77.81
2022-12-15T02:35:25.845Z,77.74
2022-12-15T02:37:58.477Z,77.69
2022-12-15T02:40:30.419Z,77.67
2022-12-15T02:43:05.751Z,77.91
2022-12-15T02:45:51.249Z,77.89
2022-12-15T02:48:33.254Z,78.08
2022-12-15T02:51:21.702Z,78.07
2022-12-15T02:54:19.265Z,78.00
2022-12-15T02:57:00.438Z,78.25
2022-12-15T02:59:44.150Z,78.29
2022-12-15T03:02:16.995Z,78.31
2022-12-15T03:04:54.649Z,78.11
2022-12-15T03:07:28.657Z,78.20
2022-12-15T03:10:04.820Z,78.48
2022-12-15T03:12:37.294Z,78.38
2022-12-15T03:15:10.701Z,78.46
2022-12-15T03:17:43.210Z,78.31
2022-12-15T03:20:16.087Z,78.24
2022-12-15T03:22:48.331Z,78.21
2022-12-15T03:25:20.761Z,78.25
2022-12-15T03:27:53.451Z,78.12
2022-12-15T03:30:25.788Z,78.11
2022-12-15T03:32:58.023Z,78.05
2022-12-15T03:35:32.844Z,78.05
2022-12-15T03:38:05.406Z,78.47
2022-12-15T03:40:46.612Z,78.60
2022-12-15T03:43:18.854Z,78.37
2022-12-15T03:45:53.528Z,78.29
2022-12-15T03:48:25.569Z,78.02
2022-12-15T03:50:59.300Z,77.81
2022-12-15T03:53:31.953Z,77.77
2022-12-15T03:56:07.273Z,77.75
2022-12-15T03:58:39.535Z,77.66
2022-12-15T04:01:20.645Z,77.73
2022-12-15T04:04:00.564Z,77.72
2022-12-15T04:06:33.899Z,77.71
2022-12-15T04:09:06.671Z,77.61
2022-12-15T04:11:38.717Z,77.46
2022-12-15T04:14:11.888Z,77.47
2022-12-15T04:16:43.937Z,77.66
2022-12-15T04:19:30.085Z,77.46
2022-12-15T04:22:04.785Z,77.84
2022-12-15T04:24:54.823Z,78.07
2022-12-15T04:27:45.028Z,77.72
2022-12-15T04:30:38.083Z,77.95
2022-12-15T04:33:31.048Z,78.01
2022-12-15T04:36:24.289Z,78.08
2022-12-15T04:39:13.908Z,78.36
2022-12-15T04:42:04.561Z,78.22
2022-12-15T04:44:55.553Z,78.18
2022-12-15T04:47:46.902Z,78.11
2022-12-15T04:50:46.487Z,78.19
2022-12-15T04:53:41.384Z,78.19
2022-12-15T04:56:32.424Z,78.15
2022-12-15T04:59:22.305Z,78.21
2022-12-15T05:02:12.245Z,78.28
2022-12-15T05:05:02.075Z,78.24
2022-12-15T05:07:52.572Z,78.32
2022-12-15T05:10:44.222Z,78.51
2022-12-15T05:13:34.249Z,78.59
2022-12-15T05:16:25.550Z,78.42
2022-12-15T05:19:15.871Z,78.24
2022-12-15T05:22:05.556Z,78.46
2022-12-15T05:24:55.196Z,78.46
2022-12-15T05:27:44.969Z,78.43
2022-12-15T05:30:35.151Z,78.29
2022-12-15T05:33:09.072Z,78.17
2022-12-15T05:35:46.673Z,78.28
2022-12-15T05:38:19.648Z,78.09
2022-12-15T05:40:54.149Z,77.91
2022-12-15T05:43:29.736Z,77.98
2022-12-15T05:46:06.480Z,78.11
2022-12-15T05:48:39.012Z,78.08
2022-12-15T05:51:13.100Z,77.99
2022-12-15T05:53:45.393Z,78.17
2022-12-15T05:56:17.784Z,78.46
2022-12-15T05:58:54.651Z,78.38
2022-12-15T06:01:28.938Z,78.37
2022-12-15T06:04:01.966Z,78.37
2022-12-15T06:06:34.708Z,78.37
2022-12-15T06:09:07.273Z,78.21
2022-12-15T06:11:39.439Z,78.06
2022-12-15T06:14:12.174Z,78.25
2022-12-15T06:16:50.942Z,78.25
2022-12-15T06:19:31.348Z,78.29
2022-12-15T06:22:03.537Z,78.11
2022-12-15T06:24:35.915Z,78.06
2022-12-15T06:27:09.240Z,78.11
2022-12-15T06:29:41.665Z,78.09
2022-12-15T06:32:13.814Z,78.34
2022-12-15T06:34:46.230Z,78.54
2022-12-15T06:37:18.481Z,78.46
2022-12-15T06:39:51.265Z,78.47
2022-12-15T06:42:23.889Z,78.22
2022-12-15T06:44:56.328Z,78.19
2022-12-15T06:47:29.209Z,78.14
2022-12-15T06:50:01.577Z,78.21
2022-12-15T06:52:33.948Z,78.11
2022-12-15T06:55:07.223Z,78.05
2022-12-15T06:57:40.072Z,78.00
2022-12-15T07:00:15.675Z,77.93
2022-12-15T07:02:49.834Z,77.99
2022-12-15T07:05:23.704Z,78.12
2022-12-15T07:07:57.300Z,78.12
2022-12-15T07:10:32.332Z,78.09
2022-12-15T07:13:11.271Z,78.14
2022-12-15T07:15:44.923Z,78.20
2022-12-15T07:18:17.519Z,78.16
2022-12-15T07:20:49.881Z,78.18
2022-12-15T07:23:39.943Z,78.05
2022-12-15T07:26:15.699Z,78.28
2022-12-15T07:28:47.987Z,78.22
2022-12-15T07:31:20.803Z,78.30
2022-12-15T07:33:55.195Z,78.24
2022-12-15T07:36:27.793Z,78.31
2022-12-15T07:39:04.957Z,78.26
2022-12-15T07:41:36.986Z,78.28
2022-12-15T07:44:09.071Z,78.27
2022-12-15T07:46:41.480Z,78.16
2022-12-15T07:49:13.756Z,78.26
2022-12-15T07:51:46.444Z,78.29
2022-12-15T07:54:18.767Z,78.29
2022-12-15T07:56:54.491Z,78.37
2022-12-15T07:59:26.597Z,78.52
2022-12-15T08:02:00.892Z,78.34
2022-12-15T08:04:33.613Z,78.46
2022-12-15T08:07:07.129Z,78.57
2022-12-15T08:09:39.584Z,78.70
2022-12-15T08:12:12.146Z,78.51
2022-12-15T08:14:44.466Z,78.51
2022-12-15T08:17:23.168Z,78.50
2022-12-15T08:19:58.888Z,78.50
2022-12-15T08:22:31.164Z,78.62
2022-12-15T08:25:03.419Z,78.49
2022-12-15T08:27:36.215Z,78.57
2022-12-15T08:30:10.579Z,78.62
2022-12-15T08:32:46.066Z,78.56
2022-12-15T08:35:54.412Z,78.44
2022-12-15T08:38:16.544Z,78.65
2022-12-15T08:40:48.804Z,78.65
2022-12-15T08:43:21.324Z,78.54
2022-12-15T08:45:57.811Z,78.49
2022-12-15T08:48:30.257Z,78.52
2022-12-15T08:51:03.358Z,78.40
2022-12-15T08:53:35.589Z,78.48
2022-12-15T08:56:10.445Z,78.46
2022-12-15T08:58:43.157Z,78.57
2022-12-15T09:01:22.811Z,78.57
2022-12-15T09:03:57.687Z,78.67
2022-12-15T09:06:32.009Z,78.61
2022-12-15T09:09:07.519Z,78.59
2022-12-15T09:11:39.860Z,78.59
2022-12-15T09:14:12.277Z,78.76
2022-12-15T09:16:44.745Z,78.53
2022-12-15T09:19:17.051Z,78.48
2022-12-15T09:21:49.673Z,78.62
2022-12-15T09:24:30.590Z,78.29
2022-12-15T09:27:06.622Z,78.23
2022-12-15T09:29:39.155Z,78.25
2022-12-15T09:32:14.209Z,78.34
2022-12-15T09:34:47.059Z,78.18
2022-12-15T09:37:23.097Z,78.39
2022-12-15T09:39:56.219Z,78.29
2022-12-15T09:42:30.598Z,78.45
2022-12-15T09:45:09.923Z,78.43
2022-12-15T09:47:51.360Z,78.52
2022-12-15T09:50:30.603Z,78.74
2022-12-15T09:53:17.727Z,78.59
2022-12-15T09:56:09.255Z,78.62
2022-12-15T09:58:54.780Z,78.49
2022-12-15T10:01:34.352Z,78.44
2022-12-15T10:04:15.580Z,78.40
2022-12-15T10:06:56.614Z,78.34
2022-12-15T10:09:30.575Z,78.45
2022-12-15T10:12:08.798Z,78.55
2022-12-15T10:14:43.977Z,78.48
2022-12-15T10:17:24.285Z,78.35
2022-12-15T10:20:03.364Z,78.25
2022-12-15T10:22:39.322Z,78.34
2022-12-15T10:25:25.346Z,78.43
2022-12-15T10:28:20.375Z,78.11
2022-12-15T10:31:00.628Z,78.27
2022-12-15T10:33:36.289Z,78.37
2022-12-15T10:36:12.795Z,78.35
2022-12-15T10:38:50.578Z,78.30
2022-12-15T10:41:26.011Z,78.50
2022-12-15T10:44:02.742Z,78.44
2022-12-15T10:46:35.012Z,78.31
2022-12-15T10:49:25.467Z,78.34
2022-12-15T10:52:00.799Z,78.31
2022-12-15T10:54:44.887Z,78.45
2022-12-15T10:57:21.178Z,78.22
2022-12-15T10:59:53.169Z,78.22
2022-12-15T11:02:36.935Z,77.99
2022-12-15T11:05:21.063Z,77.94
2022-12-15T11:07:57.929Z,78.18
2022-12-15T11:10:53.444Z,77.95
2022-12-15T11:13:35.034Z,78.03
2022-12-15T11:16:17.953Z,77.97
2022-12-15T11:18:57.154Z,78.02
2022-12-15T11:21:31.808Z,78.07
2022-12-15T11:24:11.988Z,78.09
2022-12-15T11:26:56.656Z,78.06
2022-12-15T11:29:38.171Z,78.13
2022-12-15T11:32:14.221Z,77.90
2022-12-15T11:34:49.120Z,77.94
2022-12-15T11:37:39.433Z,78.00
2022-12-15T11:40:45.276Z,78.04
2022-12-15T11:43:35.620Z,77.99
2022-12-15T11:46:26.483Z,77.89
2022-12-15T11:49:15.038Z,78.00
2022-12-15T11:51:56.318Z,78.20
2022-12-15T11:54:38.320Z,78.32
2022-12-15T11:57:33.044Z,78.17
2022-12-15T12:00:09.880Z,77.98
2022-12-15T12:03:03.242Z,78.16
2022-12-15T12:06:04.023Z,78.20
2022-12-15T12:08:51.543Z,77.98
2022-12-15T12:11:29.955Z,78.11
2022-12-15T12:14:16.254Z,78.10
2022-12-15T12:16:57.250Z,78.03
2022-12-15T12:19:36.488Z,78.16
2022-12-15T12:22:21.750Z,78.14
2022-12-15T12:25:00.547Z,78.08
2022-12-15T12:27:36.800Z,78.02
2022-12-15T12:30:15.290Z,78.15
2022-12-15T12:32:57.399Z,78.20
2022-12-15T12:35:43.654Z,78.14
2022-12-15T12:38:20.321Z,78.30
2022-12-15T12:41:05.852Z,78.02
2022-12-15T12:43:42.339Z,78.17
2022-12-15T12:46:20.229Z,78.11
2022-12-15T12:48:57.671Z,77.97
2022-12-15T12:51:35.028Z,78.12
2022-12-15T12:54:40.491Z,78.16
2022-12-15T12:57:39.488Z,78.16
2022-12-15T13:00:32.580Z,78.08
2022-12-15T13:03:20.432Z,78.01
2022-12-15T13:06:00.879Z,78.10
2022-12-15T13:08:53.516Z,78.12
2022-12-15T13:12:20.909Z,78.10
2022-12-15T13:14:57.116Z,78.11
2022-12-15T13:17:40.234Z,78.25
2022-12-15T13:20:32.535Z,78.07
2022-12-15T13:23:41.474Z,78.05
2022-12-15T13:26:21.598Z,78.05
2022-12-15T13:28:59.876Z,78.15
2022-12-15T13:31:45.643Z,77.98
2022-12-15T13:34:24.083Z,78.02
2022-12-15T13:37:05.498Z,77.98
2022-12-15T13:39:57.532Z,78.10
2022-12-15T13:42:51.184Z,77.92
2022-12-15T13:45:52.180Z,78.06
2022-12-15T13:48:31.872Z,78.05
2022-12-15T13:51:31.682Z,78.06
2022-12-15T13:54:05.126Z,78.01
2022-12-15T13:56:50.945Z,77.84
2022-12-15T13:59:31.841Z,77.89
2022-12-15T14:02:04.044Z,77.91
2022-12-15T14:04:39.955Z,77.73
2022-12-15T14:07:15.205Z,77.59
2022-12-15T14:09:52.355Z,77.71
2022-12-15T14:12:24.916Z,77.61
2022-12-15T14:14:57.575Z,77.78
2022-12-15T14:17:33.554Z,77.81
2022-12-15T14:20:19.184Z,77.84
2022-12-15T14:22:52.763Z,77.69
2022-12-15T14:25:29.320Z,77.76
2022-12-15T14:28:05.514Z,77.58
2022-12-15T14:30:45.340Z,77.71
2022-12-15T14:33:28.120Z,77.78
2022-12-15T14:36:07.732Z,77.73
2022-12-15T14:38:46.654Z,77.76
2022-12-15T14:41:22.929Z,77.60
2022-12-15T14:44:31.764Z,77.67
2022-12-15T14:46:52.062Z,77.68
2022-12-15T14:49:39.369Z,77.71
2022-12-15T14:52:26.238Z,77.88
2022-12-15T14:55:03.268Z,78.00
2022-12-15T14:57:45.207Z,77.96
2022-12-15T15:00:29.310Z,78.00
2022-12-15T15:06:02.567Z,77.98
2022-12-15T15:08:47.676Z,77.98
2022-12-15T15:11:29.947Z,77.99
2022-12-15T15:14:05.423Z,78.14
2022-12-15T15:16:38.011Z,78.06
2022-12-15T15:19:23.240Z,78.02
2022-12-15T15:21:57.549Z,77.98
2022-12-15T15:24:37.691Z,77.96
2022-12-15T15:27:34.884Z,77.98
2022-12-15T15:30:26.468Z,77.76
2022-12-15T15:33:02.786Z,77.93
2022-12-15T15:35:44.030Z,78.13
2022-12-15T15:38:24.342Z,78.10
2022-12-15T15:41:16.235Z,78.12
2022-12-15T15:43:49.833Z,78.21
2022-12-15T15:46:26.078Z,78.37
2022-12-15T15:49:01.300Z,78.28
2022-12-15T15:51:35.530Z,78.35
2022-12-15T15:54:14.379Z,78.30
2022-12-15T15:56:47.023Z,78.15
2022-12-15T15:59:21.944Z,78.14
2022-12-15T16:01:56.747Z,78.20
2022-12-15T16:04:29.088Z,78.13
2022-12-15T16:07:05.387Z,78.16
2022-12-15T16:09:37.783Z,77.99
2022-12-15T16:12:21.295Z,78.04
2022-12-15T16:14:53.395Z,77.92
2022-12-15T16:17:25.928Z,78.16
2022-12-15T16:20:00.105Z,78.25
2022-12-15T16:22:33.948Z,78.32
2022-12-15T16:25:07.469Z,78.37
2022-12-15T16:27:40.126Z,78.41
2022-12-15T16:30:22.064Z,78.48
2022-12-15T16:32:54.915Z,78.77
2022-12-15T16:35:29.135Z,78.64
2022-12-15T16:38:04.092Z,78.62
2022-12-15T16:40:43.776Z,78.54
2022-12-15T16:43:19.172Z,78.48
2022-12-15T16:45:54.012Z,78.52
2022-12-15T16:48:28.542Z,78.43
2022-12-15T16:51:03.259Z,78.45
2022-12-15T16:53:40.604Z,78.35
2022-12-15T16:56:17.148Z,78.38
2022-12-15T16:58:57.401Z,78.49
2022-12-15T17:01:40.082Z,78.62
2022-12-15T17:04:16.795Z,78.51
2022-12-15T17:06:49.085Z,78.54
2022-12-15T17:09:30.415Z,78.73
2022-12-15T17:12:11.562Z,78.68
2022-12-15T17:14:43.925Z,78.53
2022-12-15T17:17:18.261Z,78.57
2022-12-15T17:20:27.580Z,78.52
2022-12-15T17:22:44.510Z,78.43
2022-12-15T17:26:00.872Z,78.40
2022-12-15T17:28:27.998Z,78.55
2022-12-15T17:31:18.927Z,78.42
2022-12-15T17:33:55.068Z,78.18
2022-12-15T17:36:31.275Z,78.27
2022-12-15T17:39:05.351Z,78.49
2022-12-15T17:44:36.350Z,78.54
2022-12-15T17:47:11.700Z,78.74
2022-12-15T17:49:44.796Z,78.62
2022-12-15T17:52:27.516Z,78.38
2022-12-15T17:55:03.469Z,78.27
2022-12-15T17:57:44.491Z,78.22
2022-12-15T18:00:27.871Z,78.07
2022-12-15T18:03:08.100Z,78.12
2022-12-15T18:05:51.866Z,78.17
2022-12-15T18:08:27.004Z,78.17
2022-12-15T18:11:05.424Z,78.16
2022-12-15T18:13:43.794Z,78.21
2022-12-15T18:16:18.456Z,77.97
2022-12-15T18:18:50.839Z,78.09
2022-12-15T18:21:28.119Z,78.28
2022-12-15T18:24:00.644Z,78.08
2022-12-15T18:26:39.463Z,78.13
2022-12-15T18:29:19.077Z,78.26
2022-12-15T18:31:52.011Z,78.03
2022-12-15T18:34:24.920Z,78.18
2022-12-15T18:36:57.060Z,78.18
2022-12-15T18:39:34.486Z,78.15
2022-12-15T18:42:15.782Z,78.37
2022-12-15T18:44:50.735Z,78.43
2022-12-15T18:47:26.502Z,78.57
2022-12-15T18:50:01.864Z,78.55
2022-12-15T18:52:39.498Z,78.52
2022-12-15T18:55:20.541Z,78.54
2022-12-15T18:57:59.760Z,78.48
2022-12-15T19:00:34.969Z,78.35
2022-12-15T19:03:08.373Z,78.24
2022-12-15T19:05:46.654Z,78.32
2022-12-15T19:08:25.782Z,78.38
2022-12-15T19:11:06.982Z,78.44
2022-12-15T19:13:40.340Z,78.50
2022-12-15T19:16:19.847Z,78.50
2022-12-15T19:19:13.920Z,78.53
2022-12-15T19:22:06.851Z,78.45
2022-12-15T19:24:59.562Z,78.42
2022-12-15T19:27:31.806Z,78.56
2022-12-15T19:30:07.217Z,78.48
2022-12-15T19:32:41.913Z,78.50
2022-12-15T19:35:19.552Z,78.50
2022-12-15T19:37:55.409Z,78.35
2022-12-15T19:40:30.631Z,78.38
2022-12-15T19:43:09.654Z,78.37
2022-12-15T19:45:45.599Z,78.47
2022-12-15T19:48:23.670Z,78.28
2022-12-15T19:50:59.244Z,78.30
2022-12-15T19:53:32.733Z,78.12
2022-12-15T19:56:18.987Z,78.11
2022-12-15T19:58:55.156Z,78.05
2022-12-15T20:01:43.380Z,77.80
2022-12-15T20:04:22.365Z,77.95
2022-12-15T20:06:56.009Z,78.03
2022-12-15T20:09:30.470Z,77.93
2022-12-15T20:12:07.434Z,78.25
2022-12-15T20:14:39.702Z,78.20
2022-12-15T20:17:13.527Z,78.06
2022-12-15T20:19:46.355Z,77.83
2022-12-15T20:22:23.787Z,77.82
2022-12-15T20:24:56.564Z,77.90
2022-12-15T20:27:29.109Z,77.88
2022-12-15T20:30:02.197Z,77.78
2022-12-15T20:32:38.333Z,77.59
2022-12-15T20:35:14.872Z,77.61
2022-12-15T20:37:51.443Z,77.26
2022-12-15T20:40:26.025Z,77.08
2022-12-15T20:43:01.536Z,76.98
2022-12-15T20:45:33.923Z,77.62
2022-12-15T20:48:16.301Z,77.92
2022-12-15T20:50:53.509Z,77.88
2022-12-15T20:53:27.206Z,77.69
2022-12-15T20:56:06.077Z,77.39
2022-12-15T20:58:41.054Z,76.98
2022-12-15T21:01:28.580Z,77.38
2022-12-15T21:04:04.116Z,77.70
2022-12-15T21:06:37.057Z,77.56
2022-12-15T21:09:19.380Z,77.47
2022-12-15T21:11:57.336Z,77.67
2022-12-15T21:14:32.775Z,77.53
2022-12-15T21:17:04.874Z,77.50
2022-12-15T21:19:36.913Z,77.34
2022-12-15T21:22:17.147Z,77.50
2022-12-15T21:24:52.804Z,77.29
2022-12-15T21:27:35.110Z,77.19
2022-12-15T21:30:20.772Z,77.11
2022-12-15T21:32:53.791Z,77.29
2022-12-15T21:35:30.272Z,77.80
2022-12-15T21:38:09.041Z,77.68
2022-12-15T21:40:52.192Z,77.30
2022-12-15T21:43:30.908Z,76.95
2022-12-15T21:46:13.434Z,76.84
2022-12-15T21:49:04.150Z,77.06
2022-12-15T21:51:38.937Z,77.33
2022-12-15T21:54:23.749Z,77.43
2022-12-15T21:57:02.950Z,77.41
2022-12-15T21:59:35.343Z,77.26
2022-12-15T22:02:25.746Z,77.17
2022-12-15T22:04:58.119Z,77.11
2022-12-15T22:07:30.631Z,77.34
2022-12-15T22:10:03.108Z,77.69
2022-12-15T22:12:35.277Z,77.75
2022-12-15T22:15:22.288Z,77.66
2022-12-15T22:17:57.493Z,77.36
2022-12-15T22:20:32.708Z,77.58
2022-12-15T22:23:05.423Z,77.95
2022-12-15T22:25:40.896Z,78.43
2022-12-15T22:28:26.132Z,78.48
2022-12-15T22:31:04.198Z,78.51
2022-12-15T22:33:36.484Z,78.51
2022-12-15T22:36:11.856Z,78.50
2022-12-15T22:38:43.761Z,78.32
2022-12-15T22:41:22.138Z,78.61
2022-12-15T22:43:58.661Z,78.75
2022-12-15T22:46:32.708Z,78.78
2022-12-15T22:49:06.499Z,78.58
2022-12-15T22:51:38.795Z,78.63
2022-12-15T22:54:32.408Z,78.15
2022-12-15T22:57:07.980Z,77.89
2022-12-15T22:59:50.060Z,78.08
2022-12-15T23:02:27.806Z,77.86
2022-12-15T23:05:03.604Z,77.99
2022-12-15T23:07:36.792Z,78.04
2022-12-15T23:10:31.217Z,78.02
2022-12-15T23:13:03.400Z,77.92
2022-12-15T23:15:54.623Z,77.77
2022-12-15T23:18:26.859Z,77.83
2022-12-15T23:20:58.961Z,77.98
2022-12-15T23:23:34.314Z,78.02
2022-12-15T23:26:17.481Z,78.08
2022-12-15T23:28:49.999Z,77.98
2022-12-15T23:31:22.820Z,77.90
2022-12-15T23:33:55.540Z,77.95
2022-12-15T23:36:27.913Z,77.86
2022-12-15T23:39:03.788Z,77.94
2022-12-15T23:41:36.045Z,77.88
2022-12-15T23:44:08.640Z,78.00
2022-12-15T23:46:41.088Z,78.15
2022-12-15T23:49:13.583Z,78.19
2022-12-15T23:51:45.784Z,78.11
2022-12-15T23:54:18.214Z,78.15
2022-12-15T23:56:50.310Z,78.10
2022-12-15T23:59:24.192Z,78.21
